Flight Track Log - Related Links

Times and Time Zones

All times are in EDT time to prevent confusion due to time zone crossing. See the KCR746 flight status page for this flight to view local times or setup timezone preferences in your user account.

Time Position Orientation Groundspeed Altitude Reporting Facility
EDT Latitude Longitude Course Direction KTS MPH feet Rate Location/Type
Fri 12:26:00 AM 36.0000 -88.9804 90° East  Level FlightAware Approximate
Fri 12:26:14 AM 36.0150 -89.3819 90° East 260 299 1,900  Level Memphis Center
Fri 12:27:00 AM 36.0000 -88.9102 90° East  Level FlightAware Approximate
Fri 12:27:14 AM 36.0022 -89.3333 108° East 173 199 3,900  Level Memphis Center
Fri 12:28:14 AM 35.9953 -89.2769 99° East 161 185 5,600 1,750 Climbing Memphis Center
Fri 12:29:14 AM 36.0011 -89.2153 83° East 161 185 7,400 1,650 Climbing Memphis Center
Fri 12:30:14 AM 35.9983 -89.1564 93° East 161 185 8,900 1,450 Climbing Memphis Center
Fri 12:31:14 AM 36.0019 -89.0919 86° East 172 198 10,300 1,450 Climbing Memphis Center
Fri 12:32:14 AM 36.0014 -89.0278 91° East 178 205 11,800 1,350 Climbing Memphis Center
Fri 12:33:14 AM 36.0028 -88.9611 89° East 178 205 13,000 1,200 Climbing Memphis Center
Fri 12:34:14 AM 36.0039 -88.8944 89° East 183 211 14,200 1,150 Climbing Memphis Center
Fri 12:35:14 AM 36.0053 -88.8303 88° East 183 211 15,300 1,000 Climbing Memphis Center
Fri 12:36:14 AM 36.0022 -88.7558 93° East 196 226 16,200 700 Climbing Memphis Center
Fri 12:37:14 AM 36.0053 -88.6789 87° East 207 238 16,700 400 Climbing Memphis Center
Fri 12:38:14 AM 36.0083 -88.5992 87° East 224 258 17,000 150 Climbing Memphis Center
Fri 12:39:14 AM 36.0092 -88.5119 89° East 236 272 17,000  Level Memphis Center
Fri 12:40:14 AM 36.0100 -88.4197 89° East 248 285 17,000  Level Memphis Center
Fri 12:41:14 AM 36.0128 -88.3297 88° East 259 298 17,000  Level Memphis Center
Fri 12:42:14 AM 36.0111 -88.2375 91° East 259 298 17,000  Level Memphis Center
Fri 12:43:14 AM 36.0117 -88.1450 90° East 259 298 17,000  Level Memphis Center
Fri 12:44:14 AM 36.0139 -88.0475 88° East 265 305 17,000 -350 Level Memphis Center
Fri 12:45:14 AM 36.0122 -87.9475 91° East 271 312 16,300 -800 Descending Memphis Center
Fri 12:46:14 AM 36.0144 -87.8497 88° East 281 323 15,400 -850 Descending Memphis Center
Fri 12:47:14 AM 36.0144 -87.7600 90° East 281 323 14,600 -750 Descending Memphis Center
Fri 12:48:14 AM 36.0189 -87.6675 87° East 281 323 13,900 -750 Descending Memphis Center
Fri 12:49:14 AM 36.0169 -87.5778 92° East 266 306 13,100 -800 Descending Memphis Center
Fri 12:50:14 AM 36.0169 -87.4881 90° East 260 299 12,300 -850 Descending Memphis Center
Fri 12:51:14 AM 36.0086 -87.3958 96° East 255 293 11,400 -950 Descending Memphis Center
Fri 12:52:14 AM 36.0022 -87.3089 95° East 255 293 10,400 -950 Descending Memphis Center
Fri 12:53:14 AM 35.9978 -87.2192 93° East 255 293 9,500 -900 Descending Memphis Center
Fri 12:54:14 AM 35.9914 -87.1297 95° East 255 293 8,600 -1,050 Descending Memphis Center
Fri 12:55:14 AM 35.9828 -87.0378 97° East 260 299 7,400 -1,300 Descending Memphis Center
Fri 12:56:14 AM 35.9783 -86.9481 93° East 246 283 6,000 -1,200 Descending Memphis Center
Fri 12:57:14 AM 35.9742 -86.8739 94° East 220 253 5,000 -900 Descending Memphis Center
Fri 12:58:14 AM 35.9700 -86.8022 94° East 215 247 4,200 -700 Descending Memphis Center
Fri 12:59:14 AM 35.9617 -86.7333 98° East 210 242 3,600 -550 Descending Memphis Center
Fri 01:00:14 AM 35.9575 -86.6644 94° East 204 235 3,100 -500 Descending Memphis Center
Fri 01:01:14 AM 35.9514 -86.6006 97° East 197 227 2,600 -500 Descending Memphis Center
Fri 01:03:00 AM 36.0000 -86.5167 90° East  Level FlightAware Approximate
Fri 01:10:00 AM 36.0090 -86.5201 90° East  Level Estimated
Fri 01:11:00 AM 36.0090 -86.5201 90° East  Level Estimated
Fri 01:12:00 AM 36.0090 -86.5201 90° East  Level Estimated
Fri 01:13:00 AM 36.0090 -86.5201 90° East  Level Estimated
Fri 01:14:00 AM 36.0090 -86.5201 90° East  Level Estimated
Fri 01:15:00 AM 36.0090 -86.5201 90° East  Level Estimated
Fri 01:16:00 AM 36.0090 -86.5201 90° East  Level Estimated
Fri 01:17:00 AM 36.0090 -86.5201 90° East  Level Estimated
Fri 01:18:00 AM 36.0090 -86.5201 90° East  Level Estimated
Fri 01:19:00 AM 36.0090 -86.5201 90° East  Level Estimated

Login

Don't have an account? Register now (free) for customized features, flight alerts, and more!